Hauptseite
METAR-TAF:

METAR-TAF

Flughäfen :

Flugplatz Laupheim

Laupheim, Deutschland

Breite: 48-13N, Länge: 009-55E, Höhe: 538 m

Beobachtung

Neuester Wetterbericht von vor 59 Minuten, um 20:20 UTC
Wind 1 kt aus West/Nordwest
Temperatur 6°C
Luftfeuchtigkeit 61%
Luftdruck 1019 hPa
Sichtweite 10 km oder mehr
Aufgelockert bewölkt in der Höhe von 6000 ft

METAR: ETHL 032020Z 30001KT 9999 SCT060 06/M01 Q1019 BLU+

Zeit: 23:19 (21:19 UTC)

Prognose

Neuester Wetterbericht von vor 12 Stunden und 19 Minuten, um 09:00 UTC
Gültige Prognose vom 03 um 08 UTC bis 03 um 17 UTC
Wind 7 kt aus Südwest
Sichtweite: 1000 m
Leicht bewölkt in der Höhe von 6000 ft

TAF: ETHL 030900Z 0308/0317 23007KT 9999 NSW FEW060 CANCEL 1000

Wetterbeobachtungen und Prognosen von mehr als 4000 Flughäfen (METAR und TAF Bericht).

Die verfügbaren Stationen werden durch gelbe und rote Markierungen auf der Karte dargestellt.

Führen Sie die Maus auf sie, um den Namen der Station zu sehen.

Darauf klicken, um die Beobachtung von Wetterbeobachtungen und Prognosen zu sehen.

Um die Karte zu ändern : klicken Sie auf den grünen Tasten mit einem schwarzen Kreuz Zum Vergrößern, auf den grünen Button mit einem Gedankenstrich zu verkleinern, oder auf die grünen Pfeile für benachbarte Karten.


METAR-TAF: